createdAt,value
2019-04-05T00:01:40.731Z,15.57
2019-04-05T00:04:21.631Z,15.27
2019-04-05T00:07:02.389Z,15.67
2019-04-05T00:09:43.602Z,16.33
2019-04-05T00:12:24.216Z,15.70
2019-04-05T00:15:14.539Z,16.70
2019-04-05T00:17:47.543Z,17.37
2019-04-05T00:20:28.046Z,17.03
2019-04-05T00:23:08.404Z,16.47
2019-04-05T00:25:48.985Z,17.90
2019-04-05T00:28:29.405Z,15.93
2019-04-05T00:31:09.759Z,17.27
2019-04-05T00:33:50.343Z,16.40
2019-04-05T00:36:31.306Z,17.50
2019-04-05T00:39:12.584Z,16.90
2019-04-05T00:41:53.161Z,17.17
2019-04-05T00:44:33.669Z,16.97
2019-04-05T00:47:14.355Z,17.87
2019-04-05T00:49:43.577Z,15.57
2019-04-05T00:52:31.683Z,15.60
2019-04-05T00:55:19.801Z,15.50
2019-04-05T00:58:07.917Z,15.60
2019-04-05T01:00:56.030Z,15.47
2019-04-05T01:03:35.245Z,14.47
2019-04-05T01:06:23.373Z,15.93
2019-04-05T01:09:11.498Z,14.80
2019-04-05T01:11:59.605Z,16.17
2019-04-05T01:14:47.724Z,15.37
2019-04-05T01:17:35.821Z,15.70
2019-04-05T01:20:44.480Z,15.27
2019-04-05T01:23:33.325Z,15.20
2019-04-05T01:26:21.449Z,15.30
2019-04-05T01:29:09.732Z,15.67
2019-04-05T01:31:57.837Z,15.80
2019-04-05T01:34:45.957Z,16.83
2019-04-05T01:37:34.588Z,14.57
2019-04-05T01:40:43.240Z,14.90
2019-04-05T01:43:31.449Z,15.53
2019-04-05T01:46:19.575Z,14.97
2019-04-05T01:49:07.693Z,15.60
2019-04-05T01:51:55.808Z,15.80
2019-04-05T01:54:43.914Z,14.53
2019-04-05T01:57:31.963Z,14.10
2019-04-05T02:00:20.086Z,14.07
2019-04-05T02:03:08.193Z,14.40
2019-04-05T02:05:49.121Z,15.00
2019-04-05T02:08:29.833Z,15.07
2019-04-05T02:11:10.618Z,13.30
2019-04-05T02:13:51.556Z,14.40
2019-04-05T02:16:32.127Z,14.30
2019-04-05T02:19:12.611Z,15.17
2019-04-05T02:21:53.224Z,13.93
2019-04-05T02:24:33.766Z,15.53
2019-04-05T02:27:14.422Z,15.50
2019-04-05T02:29:55.146Z,14.80
2019-04-05T02:32:35.768Z,15.07
2019-04-05T02:35:16.419Z,16.17
2019-04-05T02:37:57.357Z,16.37
2019-04-05T02:40:38.043Z,14.70
2019-04-05T02:43:18.910Z,15.23
2019-04-05T02:45:59.396Z,15.30
2019-04-05T02:48:40.379Z,14.97
2019-04-05T02:51:20.786Z,14.50
2019-04-05T02:54:01.847Z,15.47
2019-04-05T02:56:42.627Z,14.90
2019-04-05T02:59:23.841Z,15.23
2019-04-05T03:02:05.126Z,14.63
2019-04-05T03:04:46.599Z,14.60
2019-04-05T03:07:27.261Z,15.40
2019-04-05T03:10:07.868Z,15.27
2019-04-05T03:12:48.420Z,14.93
2019-04-05T03:15:29.642Z,14.63
2019-04-05T03:18:10.243Z,14.43
2019-04-05T03:20:51.139Z,14.17
2019-04-05T03:23:31.846Z,15.47
2019-04-05T03:26:12.905Z,13.67
2019-04-05T03:28:53.538Z,13.50
2019-04-05T03:31:34.330Z,13.90
2019-04-05T03:34:15.044Z,14.00
2019-04-05T03:36:55.962Z,14.80
2019-04-05T03:39:36.550Z,14.23
2019-04-05T03:42:17.726Z,13.13
2019-04-05T03:44:58.466Z,14.63
2019-04-05T03:47:39.259Z,14.37
2019-04-05T03:50:19.954Z,14.20
2019-04-05T03:53:01.431Z,14.83
2019-04-05T03:55:30.516Z,16.20
2019-04-05T03:58:18.837Z,15.40
2019-04-05T04:01:06.941Z,14.97
2019-04-05T04:03:47.849Z,14.83
2019-04-05T04:06:28.879Z,14.53
2019-04-05T04:09:10.090Z,14.50
2019-04-05T04:11:50.825Z,15.97
2019-04-05T04:14:31.810Z,14.67
2019-04-05T04:17:13.541Z,14.73
2019-04-05T04:19:54.113Z,14.43
2019-04-05T04:22:34.897Z,14.47
2019-04-05T04:25:15.675Z,15.63
2019-04-05T04:27:56.682Z,15.97
2019-04-05T04:30:37.325Z,16.43
2019-04-05T04:33:18.123Z,15.20
2019-04-05T04:35:58.911Z,14.47
2019-04-05T04:38:39.933Z,14.67
2019-04-05T04:41:20.786Z,14.67
2019-04-05T04:44:01.895Z,14.83
2019-04-05T04:46:42.266Z,16.10
2019-04-05T04:49:22.664Z,15.77
2019-04-05T04:52:03.369Z,16.03
2019-04-05T04:54:44.073Z,16.60
2019-04-05T04:57:24.825Z,16.17
2019-04-05T05:00:05.279Z,16.27
2019-04-05T05:02:46.010Z,16.87
2019-04-05T05:05:26.565Z,16.53
2019-04-05T05:08:07.364Z,16.30
2019-04-05T05:10:47.750Z,16.20
2019-04-05T05:13:28.142Z,16.03
2019-04-05T05:16:08.913Z,17.83
2019-04-05T05:18:50.190Z,16.53
2019-04-05T05:21:30.781Z,17.07
2019-04-05T05:24:11.355Z,16.23
2019-04-05T05:26:52.149Z,16.70
2019-04-05T05:29:32.873Z,17.00
2019-04-05T05:32:13.681Z,16.57
2019-04-05T05:35:01.985Z,17.93
2019-04-05T05:37:36.921Z,16.60
2019-04-05T05:40:17.758Z,16.77
2019-04-05T05:42:59.177Z,18.00
2019-04-05T05:45:39.825Z,17.23
2019-04-05T05:48:20.732Z,18.93
2019-04-05T05:51:01.290Z,19.43
2019-04-05T05:56:41.093Z,17.70
2019-04-05T05:59:21.657Z,17.87
2019-04-05T06:02:02.482Z,16.67
2019-04-05T06:04:43.104Z,17.87
2019-04-05T06:07:23.709Z,18.67
2019-04-05T06:10:04.261Z,19.43
2019-04-05T06:12:45.078Z,17.43
2019-04-05T06:15:25.830Z,17.43
2019-04-05T06:18:06.725Z,18.00
2019-04-05T06:20:47.450Z,15.77
2019-04-05T06:23:34.018Z,16.83
2019-04-05T06:26:11.406Z,17.27
2019-04-05T06:28:52.006Z,16.83
2019-04-05T06:31:32.795Z,16.07
2019-04-05T06:34:13.366Z,18.37
2019-04-05T06:36:54.328Z,16.27
2019-04-05T06:39:35.073Z,18.10
2019-04-05T06:42:16.002Z,16.80
2019-04-05T06:44:56.610Z,18.63
2019-04-05T06:47:37.497Z,17.07
2019-04-05T06:50:18.113Z,17.97
2019-04-05T06:52:58.722Z,17.07
2019-04-05T06:55:39.491Z,16.70
2019-04-05T06:58:20.343Z,16.23
2019-04-05T07:01:01.544Z,17.37
2019-04-05T07:03:42.383Z,15.80
2019-04-05T07:06:23.138Z,16.57
2019-04-05T07:09:05.678Z,17.27
2019-04-05T07:11:46.538Z,18.10
2019-04-05T07:14:27.451Z,17.80
2019-04-05T07:17:08.078Z,16.90
2019-04-05T07:19:48.734Z,17.77
2019-04-05T07:22:38.491Z,16.50
2019-04-05T07:25:12.155Z,16.47
2019-04-05T07:27:53.065Z,16.27
2019-04-05T07:30:33.627Z,16.57
2019-04-05T07:33:14.309Z,16.43
2019-04-05T07:35:55.047Z,14.57
2019-04-05T07:38:35.711Z,14.63
2019-04-05T07:41:16.426Z,15.17
2019-04-05T07:43:57.131Z,15.67
2019-04-05T07:46:37.929Z,14.10
2019-04-05T07:49:19.204Z,15.60
2019-04-05T07:51:59.885Z,14.97
2019-04-05T07:54:40.681Z,14.90
2019-04-05T07:57:21.382Z,14.53
2019-04-05T08:00:02.061Z,16.63
2019-04-05T08:02:43.237Z,14.43
2019-04-05T08:05:12.317Z,14.30
2019-04-05T08:08:00.981Z,13.70
2019-04-05T08:10:49.425Z,14.00
2019-04-05T08:13:58.070Z,14.47
2019-04-05T08:16:46.216Z,15.00
2019-04-05T08:19:34.367Z,13.40
2019-04-05T08:22:22.478Z,11.63
2019-04-05T08:25:10.577Z,13.30
2019-04-05T08:27:58.812Z,14.80
2019-04-05T08:30:47.129Z,14.40
2019-04-05T08:33:36.558Z,13.30
2019-04-05T08:36:25.289Z,13.13
2019-04-05T08:39:13.339Z,13.17
2019-04-05T08:42:03.442Z,13.23
2019-04-05T08:44:51.547Z,12.30
2019-04-05T08:47:39.765Z,11.73
2019-04-05T08:50:28.042Z,12.37
2019-04-05T08:53:16.174Z,12.87
2019-04-05T08:56:04.305Z,12.60
2019-04-05T08:58:52.421Z,12.83
2019-04-05T09:01:40.537Z,12.30
2019-04-05T09:04:21.250Z,12.97
2019-04-05T09:07:03.043Z,12.90
2019-04-05T09:09:43.639Z,13.87
2019-04-05T09:12:24.133Z,12.23
2019-04-05T09:15:04.485Z,13.33
2019-04-05T09:17:45.107Z,14.03
2019-04-05T09:20:25.711Z,14.67
2019-04-05T09:23:06.762Z,13.73
2019-04-05T09:25:47.286Z,13.47
2019-04-05T09:28:27.842Z,14.70
2019-04-05T09:31:08.962Z,13.40
2019-04-05T09:33:49.534Z,14.47
2019-04-05T09:36:30.593Z,15.13
2019-04-05T09:39:15.393Z,14.60
2019-04-05T09:41:53.937Z,15.03
2019-04-05T09:44:34.938Z,14.60
2019-04-05T09:47:15.553Z,14.33
2019-04-05T09:49:56.726Z,14.43
2019-04-05T09:52:39.937Z,14.40
2019-04-05T09:55:19.981Z,14.23
2019-04-05T09:58:00.719Z,15.27
2019-04-05T10:00:41.246Z,15.90
2019-04-05T10:03:21.918Z,16.27
2019-04-05T10:06:03.021Z,21.03
2019-04-05T10:08:44.047Z,29.03
2019-04-05T10:11:24.717Z,15.33
2019-04-05T10:14:05.463Z,13.83
2019-04-05T10:16:46.502Z,13.50
2019-04-05T10:19:27.090Z,14.03
2019-04-05T10:22:08.251Z,14.53
2019-04-05T10:24:49.374Z,13.83
2019-04-05T10:27:28.710Z,14.17
2019-04-05T10:30:16.951Z,14.37
2019-04-05T10:33:05.356Z,13.77
2019-04-05T10:35:53.482Z,15.03
2019-04-05T10:38:41.514Z,15.03
2019-04-05T10:41:29.637Z,13.90
2019-04-05T10:47:12.731Z,13.13
2019-04-05T10:50:03.418Z,14.20
2019-04-05T10:52:50.697Z,16.13
2019-04-05T10:55:38.877Z,14.60
2019-04-05T10:58:27.038Z,16.13
2019-04-05T11:01:15.221Z,16.23
2019-04-05T11:04:03.481Z,14.83
2019-04-05T11:06:51.655Z,15.10
2019-04-05T11:09:20.730Z,14.10
2019-04-05T11:12:08.929Z,15.00
2019-04-05T11:14:57.149Z,13.00
2019-04-05T11:17:45.318Z,13.90
2019-04-05T11:20:33.504Z,13.10
2019-04-05T11:23:22.018Z,14.50
2019-04-05T11:26:10.209Z,14.27
2019-04-05T11:28:58.407Z,14.07
2019-04-05T11:31:56.445Z,12.90
2019-04-05T11:34:36.499Z,14.00
2019-04-05T11:37:24.689Z,13.87
2019-04-05T11:40:13.125Z,13.57
2019-04-05T11:43:22.002Z,17.57
2019-04-05T11:46:10.503Z,14.43
2019-04-05T11:48:59.054Z,13.23
2019-04-05T11:51:47.946Z,12.63
2019-04-05T11:54:36.034Z,13.33
2019-04-05T11:57:24.235Z,12.20
2019-04-05T12:00:32.898Z,12.80
2019-04-05T12:03:21.566Z,13.27
2019-04-05T12:06:02.831Z,14.07
2019-04-05T12:08:43.605Z,13.17
2019-04-05T12:11:24.417Z,13.00
2019-04-05T12:14:04.794Z,11.97
2019-04-05T12:16:45.594Z,13.97
2019-04-05T12:19:26.070Z,14.70
2019-04-05T12:22:09.115Z,14.00
2019-04-05T12:24:49.470Z,13.63
2019-04-05T12:27:30.430Z,12.93
2019-04-05T12:30:13.633Z,15.30
2019-04-05T12:32:54.170Z,14.53
2019-04-05T12:35:37.457Z,14.03
2019-04-05T12:38:36.582Z,15.57
2019-04-05T12:41:18.388Z,14.70
2019-04-05T12:43:59.046Z,15.97
2019-04-05T12:46:39.737Z,13.53
2019-04-05T12:49:20.281Z,14.30
2019-04-05T12:52:01.128Z,15.13
2019-04-05T12:54:42.109Z,14.45
2019-04-05T12:57:22.826Z,16.63
2019-04-05T13:00:03.569Z,15.15
2019-04-05T13:02:44.266Z,15.00
2019-04-05T13:05:25.363Z,15.03
2019-04-05T13:08:06.125Z,18.57
2019-04-05T13:10:46.698Z,15.00
2019-04-05T13:13:27.704Z,14.97
2019-04-05T13:16:10.794Z,18.20
2019-04-05T13:18:50.654Z,15.63
2019-04-05T13:21:32.951Z,15.57
2019-04-05T13:24:14.159Z,14.83
2019-04-05T13:26:55.120Z,15.50
2019-04-05T13:29:35.797Z,15.53
2019-04-05T13:32:17.252Z,16.75
2019-04-05T13:34:59.092Z,16.32
2019-04-05T13:37:39.741Z,15.20
2019-04-05T13:40:20.353Z,15.17
2019-04-05T13:43:01.989Z,15.83
2019-04-05T13:45:43.122Z,15.03
2019-04-05T13:48:23.545Z,16.03
2019-04-05T13:51:07.153Z,14.67
2019-04-05T13:53:47.353Z,14.90
2019-04-05T13:56:28.137Z,15.47
2019-04-05T13:59:08.882Z,14.53
2019-04-05T14:05:02.511Z,16.57
2019-04-05T14:07:43.274Z,14.33
2019-04-05T14:10:24.374Z,15.13
2019-04-05T14:13:07.621Z,16.17
2019-04-05T14:15:48.739Z,15.55
2019-04-05T14:18:29.331Z,15.60
2019-04-05T14:21:09.966Z,15.68
2019-04-05T14:23:51.263Z,15.17
2019-04-05T14:26:33.777Z,14.63
2019-04-05T14:29:14.466Z,15.32
2019-04-05T14:31:55.497Z,15.93
2019-04-05T14:34:36.676Z,14.70
2019-04-05T14:37:17.388Z,14.18
2019-04-05T14:39:58.937Z,15.25
2019-04-05T14:42:39.043Z,15.30
2019-04-05T14:45:27.282Z,15.43
2019-04-05T14:48:15.785Z,16.02
2019-04-05T14:51:04.139Z,15.98
2019-04-05T14:53:52.483Z,14.95
2019-04-05T14:59:59.834Z,15.15
2019-04-05T15:02:48.112Z,15.90
2019-04-05T15:05:29.045Z,15.58
2019-04-05T15:08:09.932Z,15.72
2019-04-05T15:10:51.589Z,16.17
2019-04-05T15:13:32.224Z,14.58
2019-04-05T15:16:14.417Z,15.60
2019-04-05T15:18:54.062Z,15.80
2019-04-05T15:21:44.845Z,15.77
2019-04-05T15:24:32.657Z,14.80
2019-04-05T15:27:21.604Z,15.00
2019-04-05T15:30:10.909Z,15.20
2019-04-05T15:36:11.962Z,14.98
2019-04-05T15:39:01.516Z,16.10
2019-04-05T15:41:50.166Z,15.68
2019-04-05T15:44:38.474Z,16.85
2019-04-05T15:47:27.487Z,15.15
2019-04-05T15:50:15.808Z,14.10
2019-04-05T15:53:05.861Z,15.72
2019-04-05T15:55:54.064Z,16.05
2019-04-05T15:58:42.278Z,16.67
2019-04-05T16:01:32.135Z,16.57
2019-04-05T16:04:20.902Z,14.77
2019-04-05T16:07:05.135Z,17.63
2019-04-05T16:09:46.727Z,16.33
2019-04-05T16:12:34.020Z,16.27
2019-04-05T16:15:15.300Z,15.88
2019-04-05T16:17:56.837Z,17.70
2019-04-05T16:20:37.412Z,16.83
2019-04-05T16:23:18.189Z,16.40
2019-04-05T16:25:59.014Z,15.70
2019-04-05T16:31:38.379Z,15.48
2019-04-05T16:34:26.068Z,16.62
2019-04-05T16:40:18.693Z,17.33
2019-04-05T16:43:07.639Z,16.43
2019-04-05T16:52:43.850Z,17.23
2019-04-05T16:55:41.888Z,16.57
2019-04-05T16:58:11.050Z,15.60
2019-04-05T17:00:59.534Z,16.73
2019-04-05T17:03:47.698Z,15.50
2019-04-05T17:06:28.586Z,16.13
2019-04-05T17:09:09.263Z,15.87
2019-04-05T17:11:50.494Z,16.20
2019-04-05T17:14:31.274Z,15.60
2019-04-05T17:17:11.998Z,15.83
2019-04-05T17:19:52.949Z,18.30
2019-04-05T17:22:33.821Z,16.73
2019-04-05T17:25:14.446Z,16.30
2019-04-05T17:27:55.187Z,17.30
2019-04-05T17:30:36.494Z,15.80
2019-04-05T17:33:17.189Z,16.73
2019-04-05T17:35:57.907Z,16.43
2019-04-05T17:38:38.505Z,15.63
2019-04-05T17:41:19.111Z,15.13
2019-04-05T17:43:59.888Z,16.57
2019-04-05T17:46:40.369Z,16.77
2019-04-05T17:49:21.013Z,16.27
2019-04-05T17:52:01.755Z,16.50
2019-04-05T17:54:42.754Z,17.37
2019-04-05T17:57:24.082Z,21.87
2019-04-05T18:00:04.853Z,19.17
2019-04-05T18:02:45.621Z,19.77
2019-04-05T18:05:26.251Z,19.57
2019-04-05T18:08:07.155Z,17.70
2019-04-05T18:10:47.849Z,20.83
2019-04-05T18:13:28.559Z,21.33
2019-04-05T18:16:09.465Z,19.83
2019-04-05T18:18:50.073Z,17.80
2019-04-05T18:21:30.650Z,16.60
2019-04-05T18:24:11.205Z,16.30
2019-04-05T18:26:51.665Z,16.77
2019-04-05T18:29:32.416Z,17.97
2019-04-05T18:32:13.161Z,17.20
2019-04-05T18:34:53.819Z,17.03
2019-04-05T18:37:35.300Z,18.47
2019-04-05T18:40:16.133Z,16.73
2019-04-05T18:42:56.790Z,17.33
2019-04-05T18:45:37.767Z,16.57
2019-04-05T18:48:18.257Z,17.43
2019-04-05T18:50:58.974Z,16.83
2019-04-05T18:53:39.770Z,16.77
2019-04-05T18:56:20.289Z,17.20
2019-04-05T18:59:00.923Z,18.20
2019-04-05T19:01:41.837Z,18.80
2019-04-05T19:04:22.617Z,19.80
2019-04-05T19:07:03.157Z,19.47
2019-04-05T19:09:44.060Z,16.30
2019-04-05T19:12:25.188Z,17.83
2019-04-05T19:15:06.535Z,17.87
2019-04-05T19:17:47.655Z,18.40
2019-04-05T19:20:28.790Z,20.30
2019-04-05T19:23:09.255Z,28.47
2019-04-05T19:25:50.398Z,19.73
2019-04-05T19:28:31.092Z,17.60
2019-04-05T19:50:09.767Z,20.17
2019-04-05T19:52:50.814Z,19.17
2019-04-05T19:55:39.015Z,18.70
2019-04-05T19:58:27.239Z,18.80
2019-04-05T20:01:15.546Z,19.53
2019-04-05T20:04:03.926Z,18.70
2019-04-05T20:06:45.146Z,19.70
2019-04-05T20:09:26.511Z,18.57
2019-04-05T20:12:07.419Z,19.30
2019-04-05T20:15:08.103Z,17.57
2019-04-05T20:17:49.156Z,19.67
2019-04-05T20:20:30.431Z,18.17
2019-04-05T20:23:11.082Z,19.73
2019-04-05T20:25:51.606Z,18.87
2019-04-05T20:28:32.131Z,18.73
2019-04-05T20:31:13.019Z,18.70
2019-04-05T20:33:53.861Z,18.43
2019-04-05T20:36:34.918Z,19.90
2019-04-05T20:39:15.833Z,18.33
2019-04-05T20:41:56.189Z,18.47
2019-04-05T20:44:36.693Z,18.73
2019-04-05T20:47:17.421Z,18.57
2019-04-05T20:49:58.070Z,18.70
2019-04-05T20:52:38.618Z,17.90
2019-04-05T20:55:19.106Z,17.77
2019-04-05T20:57:59.747Z,18.70
2019-04-05T21:00:40.620Z,17.80
2019-04-05T21:03:21.457Z,19.53
2019-04-05T21:06:02.184Z,18.20
2019-04-05T21:08:42.732Z,17.63
2019-04-05T21:11:23.333Z,18.10
2019-04-05T21:14:03.833Z,17.60
2019-04-05T21:16:44.631Z,18.37
2019-04-05T21:19:25.213Z,19.40
2019-04-05T21:22:05.761Z,20.23
2019-04-05T21:43:14.894Z,19.40
2019-04-05T21:45:55.682Z,18.83
2019-04-05T21:48:36.484Z,18.97
2019-04-05T21:51:17.316Z,20.57
2019-04-05T21:53:57.704Z,18.00
2019-04-05T21:56:38.203Z,19.10
2019-04-05T21:59:17.430Z,18.93
2019-04-05T22:04:53.865Z,19.13
2019-04-05T22:07:34.518Z,19.43
2019-04-05T22:10:15.286Z,17.07
2019-04-05T22:12:55.971Z,18.57
2019-04-05T22:15:36.874Z,19.27
2019-04-05T22:18:17.492Z,18.20
2019-04-05T22:20:58.299Z,18.13
2019-04-05T22:23:38.893Z,20.33
2019-04-05T22:26:19.824Z,18.90
2019-04-05T22:29:00.608Z,19.30
2019-04-05T22:31:41.633Z,19.23
2019-04-05T22:34:22.274Z,18.03
2019-04-05T22:37:02.832Z,19.37
2019-04-05T22:39:43.554Z,19.50
2019-04-05T22:42:24.596Z,19.33
2019-04-05T22:45:05.077Z,19.50
2019-04-05T22:47:45.743Z,18.40
2019-04-05T22:50:26.457Z,19.77
2019-04-05T22:53:07.571Z,20.43
2019-04-05T22:55:48.625Z,19.47
2019-04-05T22:58:29.193Z,19.30
2019-04-05T23:01:09.861Z,17.93
2019-04-05T23:03:50.451Z,19.57
2019-04-05T23:06:31.155Z,18.93
2019-04-05T23:09:12.206Z,19.30
2019-04-05T23:11:53.319Z,19.43
2019-04-05T23:14:33.883Z,20.40
2019-04-05T23:17:14.653Z,18.90
2019-04-05T23:19:43.746Z,19.63
2019-04-05T23:22:31.805Z,19.70
2019-04-05T23:25:22.119Z,20.07
2019-04-05T23:28:09.634Z,20.00
2019-04-05T23:30:58.082Z,20.33
2019-04-05T23:33:46.165Z,19.33
2019-04-05T23:36:34.507Z,18.30
2019-04-05T23:39:22.562Z,19.17
2019-04-05T23:42:10.594Z,18.33
2019-04-05T23:44:58.629Z,20.43
2019-04-05T23:47:46.856Z,19.50
2019-04-05T23:50:34.897Z,18.93
2019-04-05T23:53:22.928Z,19.77
2019-04-05T23:56:10.969Z,20.73
2019-04-05T23:58:59.564Z,19.50
